Irene, Mississippi
Current Conditions -  °F | °C
As of 5:53 PM on Tuesday 25 Nov 2014 (Local Time) from KMCB Reporting Station
Clear Clear  
Wind Chill: 43°   Ceiling: Unl
Heat Index: 47°   Visibility: 10mi
Dew Point: 32°   Wind: 8mph
Humidity: 56%   Direction: 320°NW
Pressure: 30.19"   Gusts: NA
Location:  31.2993°N, 90.4958°W
Report Text: KMCB 252353Z AUTO 32007KT 10SM CLR 08/00 A3019 RMK AO2 SLP222 T00830000 10128 20083 51014
Loading
Personal Weather Stations






























Interactive Weather Map New forecast layout! Learn more

10-Day Weather Forecast

Advertisements
Track Severe Weather on mobile